Time;durP1;ratioP1;P1;durP2;ratioP2;P2;SDS_P1;SDS_P2;PMS_P1;PMS_P2;Temp;Humidity;BMP_temperature;BMP_pressure;BME280_temperature;BME280_humidity;BME280_pressure;Samples;Min_cycle;Max_cycle;Signal;HPM_P1;HPM_P2
2023/02/11 00:01:48;;;;;;;17.10;11.77;;;9.90;99.90;;;;;;4986836;28;20203;-77
2023/02/11 00:04:14;;;;;;;15.17;12.77;;;9.90;99.90;;;;;;4980274;28;20211;-77
2023/02/11 00:06:39;;;;;;;17.07;12.57;;;9.90;99.90;;;;;;4972768;28;20661;-76
2023/02/11 00:09:05;;;;;;;12.87;10.83;;;9.90;99.90;;;;;;4973138;28;20215;-76
2023/02/11 00:11:31;;;;;;;17.20;10.80;;;9.90;99.90;;;;;;4973809;28;20272;-76
2023/02/11 00:13:59;;;;;;;14.57;12.37;;;9.90;99.90;;;;;;4973015;28;20610;-77
2023/02/11 00:16:25;;;;;;;18.70;12.35;;;9.90;99.90;;;;;;4957450;28;20661;-77
2023/02/11 00:18:52;;;;;;;14.65;11.32;;;9.80;99.90;;;;;;4973085;28;20180;-77
2023/02/11 00:21:23;;;;;;;14.23;11.02;;;9.80;99.90;;;;;;4956359;28;20183;-76
2023/02/11 00:23:50;;;;;;;12.43;10.48;;;9.80;99.90;;;;;;4972742;28;20215;-77
2023/02/11 00:26:22;;;;;;;15.90;12.52;;;9.80;99.90;;;;;;4976704;28;20199;-77
2023/02/11 00:28:49;;;;;;;19.63;14.93;;;9.80;99.90;;;;;;4972543;28;20184;-77
2023/02/11 00:31:16;;;;;;;18.05;12.82;;;9.80;99.90;;;;;;4972063;28;20183;-77
2023/02/11 00:33:43;;;;;;;17.45;13.32;;;9.80;99.90;;;;;;4972762;28;20183;-77
2023/02/11 00:36:29;;;;;;;17.50;12.05;;;9.80;99.90;;;;;;4972000;28;20204;-77
2023/02/11 00:38:57;;;;;;;13.52;10.68;;;9.80;99.90;;;;;;4972801;28;20318;-76
2023/02/11 00:41:23;;;;;;;15.60;11.40;;;9.70;99.90;;;;;;4972272;28;20266;-77
2023/02/11 00:43:50;;;;;;;13.35;10.25;;;9.70;99.90;;;;;;4940537;28;20820;-76
2023/02/11 00:46:18;;;;;;;15.35;11.80;;;9.70;99.90;;;;;;4972954;28;20613;-76
2023/02/11 00:48:44;;;;;;;25.60;16.33;;;9.70;99.90;;;;;;4972025;28;20234;-76
2023/02/11 00:51:16;;;;;;;20.90;14.77;;;9.70;99.90;;;;;;4975995;28;20203;-76
2023/02/11 00:53:42;;;;;;;19.58;12.07;;;9.60;99.90;;;;;;4971414;28;21097;-76
2023/02/11 00:56:09;;;;;;;17.70;13.00;;;9.60;99.90;;;;;;4971587;28;20207;-76
2023/02/11 00:58:35;;;;;;;17.45;11.52;;;9.60;99.90;;;;;;4978299;28;20975;-76
2023/02/11 01:01:01;;;;;;;14.05;10.77;;;9.60;99.90;;;;;;4971930;28;20540;-75
2023/02/11 01:03:27;;;;;;;12.07;10.73;;;9.50;99.90;;;;;;4974889;28;20219;-76
2023/02/11 01:05:54;;;;;;;14.07;11.48;;;9.50;99.90;;;;;;4972735;28;20208;-76
2023/02/11 01:08:20;;;;;;;21.50;15.83;;;9.50;99.90;;;;;;4971760;28;20592;-76
2023/02/11 01:10:56;;;;;;;21.00;14.50;;;9.40;99.90;;;;;;4973567;28;20571;-76
2023/02/11 01:13:22;;;;;;;27.40;16.52;;;9.40;99.90;;;;;;4956198;28;20615;-76
2023/02/11 01:15:48;;;;;;;19.48;14.45;;;9.40;99.90;;;;;;4954909;28;20213;-76
2023/02/11 01:18:14;;;;;;;16.87;12.77;;;9.30;99.90;;;;;;4972248;28;20254;-76
2023/02/11 01:20:41;;;;;;;18.45;12.63;;;9.30;99.90;;;;;;4979215;28;20190;-77
2023/02/11 01:23:07;;;;;;;23.83;16.83;;;9.20;99.90;;;;;;4972777;28;20198;-76
2023/02/11 01:25:32;;;;;;;21.03;15.90;;;9.20;99.90;;;;;;4938999;28;20629;-76
2023/02/11 01:27:58;;;;;;;23.90;15.60;;;9.20;99.90;;;;;;4971781;28;20262;-76
2023/02/11 01:30:24;;;;;;;17.80;13.20;;;9.10;99.90;;;;;;4975677;28;20266;-76
2023/02/11 01:32:50;;;;;;;16.20;11.97;;;9.10;99.90;;;;;;4955364;28;20545;-77
2023/02/11 01:35:15;;;;;;;19.43;10.90;;;9.10;99.90;;;;;;4971355;28;20176;-77
2023/02/11 01:37:41;;;;;;;14.10;11.60;;;9.00;99.90;;;;;;4948990;28;20198;-76
2023/02/11 01:40:13;;;;;;;16.30;12.70;;;9.00;99.90;;;;;;4972108;28;20607;-76
2023/02/11 01:42:39;;;;;;;14.95;11.90;;;9.00;99.90;;;;;;4978401;28;20222;-76
2023/02/11 01:45:43;;;;;;;14.45;10.75;;;9.00;99.90;;;;;;4970646;28;20183;-77
2023/02/11 01:48:12;;;;;;;14.88;12.57;;;9.00;99.90;;;;;;4971479;28;20594;-76
2023/02/11 01:50:41;;;;;;;12.77;9.75;;;9.00;99.90;;;;;;4971437;28;20180;-76
2023/02/11 01:58:42;;;;;;;13.88;11.35;;;8.90;99.90;;;;;;4971419;28;20191;-77
2023/02/11 02:01:11;;;;;;;18.95;12.48;;;9.00;99.90;;;;;;4938277;28;20203;-76
2023/02/11 02:03:40;;;;;;;17.23;12.40;;;9.00;99.90;;;;;;4970257;28;20245;-77
2023/02/11 02:06:18;;;;;;;14.60;11.35;;;9.00;99.90;;;;;;4971416;28;20553;-76
2023/02/11 02:09:07;;;;;;;16.25;11.98;;;9.10;99.90;;;;;;4971257;28;20189;-75
2023/02/11 02:11:34;;;;;;;15.90;13.00;;;9.10;99.90;;;;;;4961276;28;20175;-76
2023/02/11 02:14:00;;;;;;;16.95;12.25;;;9.10;99.90;;;;;;4970846;28;20211;-76
2023/02/11 02:16:33;;;;;;;15.98;12.10;;;9.10;99.90;;;;;;4976135;28;20711;-76
2023/02/11 02:19:09;;;;;;;15.25;11.90;;;9.10;99.90;;;;;;4963785;28;20180;-76
2023/02/11 02:21:50;;;;;;;14.10;10.88;;;9.10;99.90;;;;;;4970664;28;20179;-76
2023/02/11 02:24:27;;;;;;;15.88;12.05;;;9.10;99.90;;;;;;4972881;28;20207;-75
2023/02/11 02:27:31;;;;;;;13.52;11.23;;;9.10;99.90;;;;;;4969852;28;20534;-76
2023/02/11 02:30:22;;;;;;;18.02;11.57;;;9.10;99.90;;;;;;4956833;28;20247;-75
2023/02/11 02:33:14;;;;;;;14.60;11.10;;;9.10;99.90;;;;;;4959951;28;20318;-76
2023/02/11 02:36:02;;;;;;;15.20;12.32;;;9.10;99.90;;;;;;4975682;28;20176;-75
2023/02/11 02:38:52;;;;;;;14.70;11.18;;;9.00;99.90;;;;;;4975576;28;20164;-75
2023/02/11 02:41:23;;;;;;;12.77;10.32;;;9.00;99.90;;;;;;4959319;28;20171;-75
2023/02/11 02:43:50;;;;;;;15.23;11.23;;;8.90;99.90;;;;;;4962861;28;20242;-75
2023/02/11 02:46:25;;;;;;;18.15;11.27;;;8.90;99.90;;;;;;4975132;28;20192;-75
2023/02/11 02:48:52;;;;;;;14.85;11.75;;;8.80;99.90;;;;;;4959329;28;20200;-75
2023/02/11 02:51:49;;;;;;;16.90;12.38;;;8.80;99.90;;;;;;4975415;28;20203;-75
2023/02/11 02:54:34;;;;;;;16.25;12.13;;;8.70;99.90;;;;;;4943440;28;20188;-76
2023/02/11 02:57:31;;;;;;;15.02;11.35;;;8.70;99.90;;;;;;4974973;28;20290;-76
2023/02/11 03:00:18;;;;;;;21.00;13.38;;;8.60;99.90;;;;;;4974726;28;20175;-76
2023/02/11 03:03:10;;;;;;;15.30;11.65;;;8.50;99.90;;;;;;4926390;28;20290;-76
2023/02/11 03:05:55;;;;;;;15.75;10.63;;;8.50;99.90;;;;;;4934017;28;20195;-75
2023/02/11 03:08:38;;;;;;;15.65;12.02;;;8.40;99.90;;;;;;4975718;28;20164;-76
2023/02/11 03:11:06;;;;;;;17.55;13.57;;;8.30;99.90;;;;;;4957786;28;20183;-76
2023/02/11 03:13:35;;;;;;;18.20;13.05;;;8.30;99.90;;;;;;4958331;28;20184;-76
2023/02/11 03:16:10;;;;;;;16.90;13.00;;;8.20;99.90;;;;;;4973437;28;20209;-76
2023/02/11 03:18:40;;;;;;;18.52;13.88;;;8.20;99.90;;;;;;4975685;28;20570;-76
2023/02/11 03:21:08;;;;;;;20.23;13.63;;;8.20;99.90;;;;;;4975243;28;20180;-76
2023/02/11 03:23:48;;;;;;;17.25;13.35;;;8.20;99.90;;;;;;4976309;28;20203;-76
2023/02/11 03:26:49;;;;;;;15.50;12.68;;;8.20;99.90;;;;;;4974386;28;20555;-76
2023/02/11 03:29:21;;;;;;;21.33;15.10;;;8.20;99.90;;;;;;4950067;28;20182;-76
2023/02/11 03:32:21;;;;;;;17.48;13.65;;;8.30;99.90;;;;;;4957202;28;20259;-76
2023/02/11 03:34:59;;;;;;;21.60;13.35;;;8.30;99.90;;;;;;4957053;28;20176;-76
2023/02/11 03:37:44;;;;;;;15.40;12.27;;;8.30;99.90;;;;;;4973784;28;20199;-76
2023/02/11 03:40:19;;;;;;;19.38;14.13;;;8.40;99.90;;;;;;4973908;28;20184;-76
2023/02/11 03:42:53;;;;;;;19.05;13.85;;;8.40;99.90;;;;;;4956533;28;20175;-76
2023/02/11 03:45:22;;;;;;;16.17;12.40;;;8.40;99.90;;;;;;4957063;28;20187;-76
2023/02/11 03:47:53;;;;;;;16.85;13.68;;;8.50;99.90;;;;;;4973616;28;20192;-76
2023/02/11 03:50:20;;;;;;;17.13;12.82;;;8.50;99.90;;;;;;4973490;28;20172;-76
2023/02/11 03:52:48;;;;;;;18.23;13.73;;;8.50;99.90;;;;;;4972844;28;20646;-76
2023/02/11 03:55:18;;;;;;;19.42;14.40;;;8.50;99.90;;;;;;4974202;28;20520;-76
2023/02/11 03:57:45;;;;;;;17.70;14.65;;;8.50;99.90;;;;;;4965611;28;20202;-76
2023/02/11 04:00:12;;;;;;;21.23;14.15;;;8.50;99.90;;;;;;4981517;28;20187;-77
2023/02/11 04:02:38;;;;;;;21.83;15.82;;;8.50;99.90;;;;;;4975627;28;20180;-76
2023/02/11 04:05:06;;;;;;;19.67;14.55;;;8.50;99.90;;;;;;4975396;28;20825;-76
2023/02/11 04:07:32;;;;;;;22.70;13.88;;;8.50;99.90;;;;;;4981224;28;20235;-76
2023/02/11 04:09:58;;;;;;;15.90;13.05;;;8.60;99.90;;;;;;4969570;28;20633;-77
2023/02/11 04:12:24;;;;;;;15.97;13.00;;;8.60;99.90;;;;;;4968429;28;20211;-77
2023/02/11 04:14:49;;;;;;;21.13;13.80;;;8.70;99.90;;;;;;4973577;28;20659;-77
2023/02/11 04:17:15;;;;;;;16.37;13.13;;;8.70;99.90;;;;;;4972558;28;20192;-76
2023/02/11 04:19:41;;;;;;;16.70;12.77;;;8.70;99.90;;;;;;4973140;28;20592;-77
2023/02/11 04:22:07;;;;;;;24.70;13.77;;;8.80;99.90;;;;;;4973674;28;20160;-77
2023/02/11 04:24:33;;;;;;;15.33;12.70;;;8.80;99.90;;;;;;4973636;28;20251;-77
2023/02/11 04:26:58;;;;;;;14.93;12.47;;;8.90;99.90;;;;;;4972488;28;20754;-77
2023/02/11 04:29:24;;;;;;;17.00;13.30;;;8.90;99.90;;;;;;4973944;28;21127;-77
2023/02/11 04:31:50;;;;;;;19.93;12.30;;;8.90;99.90;;;;;;4956556;28;20583;-77
2023/02/11 04:34:16;;;;;;;17.17;12.53;;;9.00;99.90;;;;;;4956463;28;20176;-77
2023/02/11 04:36:41;;;;;;;13.80;10.47;;;9.00;99.90;;;;;;4974098;28;20278;-76
2023/02/11 04:39:07;;;;;;;17.07;12.20;;;9.00;99.90;;;;;;4973573;28;20178;-77
2023/02/11 04:41:33;;;;;;;19.40;12.60;;;9.00;99.90;;;;;;4973795;28;20577;-77
2023/02/11 04:43:59;;;;;;;21.23;13.10;;;9.10;99.90;;;;;;4973737;28;20207;-77
2023/02/11 04:46:24;;;;;;;14.80;11.53;;;9.10;99.90;;;;;;4972214;28;20200;-77
2023/02/11 04:48:50;;;;;;;13.60;11.30;;;9.10;99.90;;;;;;4973312;28;20172;-77
2023/02/11 04:51:16;;;;;;;16.80;12.50;;;9.10;99.90;;;;;;4971831;28;20560;-76
2023/02/11 04:53:41;;;;;;;16.10;10.53;;;9.10;99.90;;;;;;4973070;28;20266;-76
2023/02/11 04:56:07;;;;;;;14.40;10.30;;;9.10;99.90;;;;;;4971721;28;20680;-77
2023/02/11 04:58:33;;;;;;;16.83;12.50;;;9.10;99.90;;;;;;4973657;28;20664;-77
2023/02/11 05:01:13;;;;;;;15.07;11.80;;;9.20;99.90;;;;;;4971950;28;20271;-77
2023/02/11 05:03:40;;;;;;;13.63;11.88;;;9.20;99.90;;;;;;4973419;28;20646;-77
2023/02/11 05:06:06;;;;;;;18.67;11.70;;;9.20;99.90;;;;;;4972289;28;20286;-77
2023/02/11 05:08:32;;;;;;;15.87;11.63;;;9.20;99.90;;;;;;4973337;28;20589;-77
2023/02/11 05:11:00;;;;;;;14.30;12.37;;;9.20;99.90;;;;;;4971790;28;20951;-77
2023/02/11 05:13:27;;;;;;;18.63;12.77;;;9.20;99.90;;;;;;4974479;28;20607;-77
2023/02/11 05:15:53;;;;;;;15.10;12.07;;;9.20;99.90;;;;;;4955303;28;20279;-77
2023/02/11 05:18:19;;;;;;;16.07;12.50;;;9.20;99.90;;;;;;4973458;28;20810;-77
2023/02/11 05:20:45;;;;;;;20.10;12.70;;;9.30;99.90;;;;;;4972627;28;20180;-77
2023/02/11 05:23:11;;;;;;;18.23;12.53;;;9.30;99.90;;;;;;4955292;28;20638;-77
2023/02/11 05:25:37;;;;;;;21.85;13.77;;;9.30;99.90;;;;;;4971344;28;20178;-77
2023/02/11 05:28:04;;;;;;;14.95;11.90;;;9.30;99.90;;;;;;4974130;28;20168;-77
2023/02/11 05:30:30;;;;;;;14.95;12.43;;;9.30;99.90;;;;;;4974090;28;20203;-76
2023/02/11 05:32:56;;;;;;;14.93;11.75;;;9.30;99.90;;;;;;4973976;28;20168;-77
2023/02/11 05:35:22;;;;;;;16.83;12.23;;;9.30;99.90;;;;;;4971371;28;20699;-77
2023/02/11 05:37:48;;;;;;;15.70;12.23;;;9.30;99.90;;;;;;4973745;28;20242;-77
2023/02/11 05:40:15;;;;;;;14.95;11.18;;;9.30;99.90;;;;;;4974117;28;20182;-76
2023/02/11 05:42:40;;;;;;;15.57;10.68;;;9.30;99.90;;;;;;4972531;28;20524;-75
2023/02/11 05:45:06;;;;;;;15.60;12.43;;;9.20;99.90;;;;;;4972256;28;20306;-76
2023/02/11 05:47:32;;;;;;;17.02;13.43;;;9.30;99.90;;;;;;4955089;28;20195;-76
2023/02/11 05:49:59;;;;;;;21.20;14.10;;;9.30;99.90;;;;;;4973293;28;20717;-76
2023/02/11 05:52:25;;;;;;;15.90;12.63;;;9.30;99.90;;;;;;4972891;28;20611;-76
2023/02/11 05:54:51;;;;;;;17.73;13.27;;;9.30;99.90;;;;;;4974815;28;20250;-77
2023/02/11 05:57:17;;;;;;;18.80;13.07;;;9.30;99.90;;;;;;4970962;28;20206;-76
2023/02/11 05:59:43;;;;;;;19.60;13.27;;;9.30;99.90;;;;;;4972759;28;20638;-77
2023/02/11 06:02:09;;;;;;;15.90;12.40;;;9.30;99.90;;;;;;4972043;28;20567;-76
2023/02/11 06:04:36;;;;;;;16.80;12.60;;;9.30;99.90;;;;;;4972018;28;20560;-76
2023/02/11 06:07:02;;;;;;;19.17;12.75;;;9.30;99.90;;;;;;4938522;28;20203;-76
2023/02/11 06:09:28;;;;;;;17.00;12.85;;;9.30;99.90;;;;;;4972225;28;20331;-76
2023/02/11 06:11:54;;;;;;;22.67;13.37;;;9.30;99.90;;;;;;4972315;28;20183;-76
2023/02/11 06:14:19;;;;;;;16.23;13.33;;;9.30;99.90;;;;;;4954991;28;20186;-76
2023/02/11 06:16:45;;;;;;;16.63;13.50;;;9.30;99.90;;;;;;4971986;28;20207;-76
2023/02/11 06:19:11;;;;;;;21.07;13.50;;;9.30;99.90;;;;;;4972077;28;20179;-76
2023/02/11 06:21:38;;;;;;;15.48;11.85;;;9.30;99.90;;;;;;4970817;28;20180;-76
2023/02/11 06:24:04;;;;;;;19.98;13.27;;;9.30;99.90;;;;;;4954981;28;20306;-76
2023/02/11 06:26:30;;;;;;;20.75;14.80;;;9.30;99.90;;;;;;4973080;28;20194;-76
2023/02/11 06:28:59;;;;;;;18.90;13.50;;;9.30;99.90;;;;;;4973748;28;20175;-76
2023/02/11 06:31:25;;;;;;;19.02;13.85;;;9.30;99.90;;;;;;4972146;28;20575;-76
2023/02/11 06:33:51;;;;;;;16.00;14.17;;;9.30;99.90;;;;;;4970813;28;20186;-76
2023/02/11 06:36:19;;;;;;;18.92;12.80;;;9.30;99.90;;;;;;4972136;28;20203;-76
2023/02/11 06:38:46;;;;;;;19.02;13.88;;;9.30;99.90;;;;;;4971209;28;20175;-76
2023/02/11 06:41:14;;;;;;;19.98;13.23;;;9.30;99.90;;;;;;4970661;28;20266;-76
2023/02/11 06:43:40;;;;;;;18.55;13.40;;;9.30;99.90;;;;;;4971175;28;20208;-76
2023/02/11 06:46:07;;;;;;;20.75;16.35;;;9.30;99.90;;;;;;4971881;28;20282;-76
2023/02/11 06:48:34;;;;;;;19.60;13.95;;;9.30;99.90;;;;;;4970701;28;20179;-76
2023/02/11 06:51:05;;;;;;;17.10;13.65;;;9.30;99.90;;;;;;4954826;28;20175;-76
2023/02/11 06:53:34;;;;;;;17.00;14.02;;;9.30;99.90;;;;;;4972026;28;20258;-76
2023/02/11 06:56:08;;;;;;;18.27;13.63;;;9.30;99.90;;;;;;4971749;28;20187;-76
2023/02/11 06:58:35;;;;;;;17.17;13.05;;;9.30;99.90;;;;;;4972476;28;20274;-76
2023/02/11 07:01:05;;;;;;;15.38;12.07;;;9.30;99.90;;;;;;4970752;28;20184;-76
2023/02/11 07:03:33;;;;;;;19.50;14.45;;;9.30;99.90;;;;;;4972263;28;20207;-77
2023/02/11 07:05:59;;;;;;;17.73;13.43;;;9.30;99.90;;;;;;4974403;28;20235;-76
2023/02/11 07:08:25;;;;;;;20.87;15.93;;;9.30;99.90;;;;;;4954819;28;20183;-76
2023/02/11 07:10:50;;;;;;;20.40;14.50;;;9.30;99.90;;;;;;4971802;28;20171;-76
2023/02/11 07:13:16;;;;;;;18.57;13.87;;;9.30;99.90;;;;;;4954429;28;20322;-76
2023/02/11 07:15:42;;;;;;;23.07;13.70;;;9.30;99.90;;;;;;4970235;28;20176;-76
2023/02/11 07:18:07;;;;;;;22.27;13.20;;;9.30;99.90;;;;;;4973963;28;20257;-76
2023/02/11 07:20:33;;;;;;;20.00;13.90;;;9.30;99.90;;;;;;4974110;28;20628;-76
2023/02/11 07:22:59;;;;;;;16.97;14.30;;;9.30;99.90;;;;;;4973321;28;20191;-75
2023/02/11 07:25:24;;;;;;;21.67;14.03;;;9.30;99.90;;;;;;4973474;28;20740;-76
2023/02/11 07:27:50;;;;;;;17.20;14.20;;;9.30;99.90;;;;;;4957439;28;20191;-76
2023/02/11 07:30:16;;;;;;;21.20;14.33;;;9.30;99.90;;;;;;4975343;28;20168;-76
2023/02/11 07:32:45;;;;;;;18.63;15.30;;;9.30;99.90;;;;;;4973033;28;20638;-76
2023/02/11 07:35:10;;;;;;;22.15;14.35;;;9.30;99.90;;;;;;4973535;28;20530;-76
2023/02/11 07:37:36;;;;;;;16.73;13.60;;;9.30;99.90;;;;;;4972785;28;20278;-76
2023/02/11 07:40:03;;;;;;;20.17;13.93;;;9.30;99.90;;;;;;4972052;28;20575;-76
2023/02/11 07:42:28;;;;;;;24.02;13.57;;;9.30;99.90;;;;;;4975499;28;20179;-77
2023/02/11 07:44:54;;;;;;;15.87;12.77;;;9.40;99.90;;;;;;4973187;28;20222;-77
2023/02/11 07:47:20;;;;;;;17.63;13.33;;;9.40;99.90;;;;;;4953618;28;20295;-77
2023/02/11 07:49:46;;;;;;;18.93;14.40;;;9.40;99.90;;;;;;4974521;28;20207;-76
2023/02/11 07:52:12;;;;;;;20.27;14.63;;;9.40;99.90;;;;;;4973027;28;20184;-77
2023/02/11 07:54:38;;;;;;;21.20;14.80;;;9.40;99.90;;;;;;4965726;28;20186;-77
2023/02/11 07:57:03;;;;;;;17.67;13.80;;;9.40;99.90;;;;;;4968979;28;20222;-77
2023/02/11 07:59:29;;;;;;;20.27;14.90;;;9.40;99.90;;;;;;4974397;28;20603;-77
2023/02/11 08:01:55;;;;;;;23.70;15.83;;;9.50;99.90;;;;;;4960524;28;20583;-77
2023/02/11 08:04:21;;;;;;;23.17;15.67;;;9.40;99.90;;;;;;4967668;28;21054;-77
2023/02/11 08:06:46;;;;;;;19.80;13.40;;;9.40;99.90;;;;;;4935959;28;20207;-76
2023/02/11 08:09:17;;;;;;;22.30;14.90;;;9.40;99.90;;;;;;4947258;28;20259;-76
2023/02/11 08:11:43;;;;;;;19.63;13.25;;;9.40;99.90;;;;;;4967227;28;20175;-76
2023/02/11 08:14:10;;;;;;;21.43;15.70;;;9.50;99.90;;;;;;4971570;28;20537;-76
2023/02/11 08:16:37;;;;;;;21.10;15.05;;;9.50;99.90;;;;;;4968864;28;20616;-76
2023/02/11 08:19:12;;;;;;;19.27;14.63;;;9.50;99.90;;;;;;4965383;28;20207;-76
2023/02/11 08:21:41;;;;;;;17.60;13.90;;;9.50;99.90;;;;;;4969551;28;20179;-76
2023/02/11 08:24:07;;;;;;;20.55;13.30;;;9.50;99.90;;;;;;4944436;28;20250;-75
2023/02/11 08:26:34;;;;;;;23.05;16.55;;;9.50;99.90;;;;;;4971375;28;20568;-75
2023/02/11 08:29:04;;;;;;;24.25;16.45;;;9.50;99.90;;;;;;4947975;28;20263;-75
2023/02/11 08:31:34;;;;;;;21.23;16.38;;;9.50;99.90;;;;;;4973342;28;20172;-75
2023/02/11 08:34:01;;;;;;;19.90;15.18;;;9.50;99.90;;;;;;4974207;28;20218;-75
2023/02/11 08:36:35;;;;;;;20.23;14.85;;;9.50;99.90;;;;;;4955801;28;20202;-76
2023/02/11 08:39:05;;;;;;;20.95;14.15;;;9.50;99.90;;;;;;4956674;28;20244;-76
2023/02/11 08:41:32;;;;;;;22.88;15.80;;;9.60;99.90;;;;;;4973528;28;20172;-77
2023/02/11 08:43:58;;;;;;;21.65;15.95;;;9.60;99.90;;;;;;4956400;28;20827;-78
2023/02/11 08:46:24;;;;;;;21.03;15.53;;;9.60;99.90;;;;;;4973003;28;20295;-78
2023/02/11 08:48:49;;;;;;;21.65;13.70;;;9.60;99.90;;;;;;4972466;28;20531;-78
2023/02/11 08:51:21;;;;;;;25.23;15.77;;;9.60;99.90;;;;;;4973295;28;20164;-78
2023/02/11 08:53:48;;;;;;;19.60;14.10;;;9.60;99.90;;;;;;4972836;28;20922;-78
2023/02/11 08:56:14;;;;;;;19.67;14.25;;;9.70;99.90;;;;;;4952993;28;20195;-78
2023/02/11 08:58:41;;;;;;;20.55;14.27;;;9.70;99.90;;;;;;4972912;28;20184;-78
2023/02/11 09:01:12;;;;;;;19.65;13.95;;;9.70;99.90;;;;;;4969756;28;20187;-78
2023/02/11 09:03:38;;;;;;;19.50;15.27;;;9.70;99.90;;;;;;4973707;28;20294;-78
2023/02/11 09:06:09;;;;;;;17.57;12.40;;;9.70;99.90;;;;;;4999680;22;20266;-78
2023/02/11 09:08:40;;;;;;;22.23;14.15;;;9.70;99.90;;;;;;4967392;28;20599;-79
2023/02/11 09:11:06;;;;;;;18.48;12.45;;;9.80;99.90;;;;;;4985469;28;20637;-78
2023/02/11 09:13:32;;;;;;;18.10;13.25;;;9.80;99.90;;;;;;4967700;28;20183;-78
2023/02/11 09:15:59;;;;;;;16.10;13.13;;;9.80;99.90;;;;;;4991308;28;20274;-78
2023/02/11 09:18:25;;;;;;;17.45;13.43;;;9.80;99.90;;;;;;4991523;28;20175;-78
2023/02/11 09:20:51;;;;;;;20.42;14.65;;;9.80;99.90;;;;;;4990789;28;20555;-78
2023/02/11 09:23:17;;;;;;;20.73;14.97;;;9.80;99.90;;;;;;4990176;28;20195;-79
2023/02/11 09:25:43;;;;;;;22.50;16.30;;;9.80;99.90;;;;;;4990012;28;21200;-78
2023/02/11 09:28:09;;;;;;;22.60;15.10;;;9.90;99.90;;;;;;4989962;28;20943;-78
2023/02/11 09:30:36;;;;;;;23.33;15.85;;;9.90;99.90;;;;;;4972734;28;20631;-80
2023/02/11 09:33:02;;;;;;;17.33;13.85;;;9.90;99.90;;;;;;4957512;28;20655;-80
2023/02/11 09:35:28;;;;;;;20.90;12.57;;;9.90;99.90;;;;;;4955134;28;20188;-78
2023/02/11 09:37:54;;;;;;;17.10;14.40;;;9.90;99.90;;;;;;4958651;28;20210;-79
2023/02/11 09:40:21;;;;;;;19.90;14.88;;;9.90;99.90;;;;;;4972258;28;20191;-78
2023/02/11 09:42:49;;;;;;;22.30;14.07;;;10.00;99.90;;;;;;4923173;28;20198;-78
2023/02/11 09:45:23;;;;;;;20.58;15.07;;;10.00;99.90;;;;;;4972569;28;20199;-78
2023/02/11 09:48:19;;;;;;;18.02;14.18;;;10.00;99.90;;;;;;4972774;28;20168;-78
2023/02/11 09:50:50;;;;;;;21.27;14.07;;;10.10;99.90;;;;;;4972803;28;20230;-78
2023/02/11 09:53:28;;;;;;;19.35;14.52;;;10.10;99.90;;;;;;4955223;28;20180;-78
2023/02/11 09:56:11;;;;;;;17.35;13.00;;;10.10;99.90;;;;;;4954924;28;20203;-78
2023/02/11 09:58:39;;;;;;;22.63;15.57;;;10.10;99.90;;;;;;4955311;28;20179;-78
2023/02/11 10:01:24;;;;;;;18.98;14.20;;;10.20;99.90;;;;;;4955145;28;20223;-78
2023/02/11 10:04:08;;;;;;;17.92;12.98;;;10.20;99.90;;;;;;4955263;28;20306;-78
2023/02/11 10:06:45;;;;;;;18.45;13.65;;;10.20;99.90;;;;;;4922852;28;20622;-78
2023/02/11 10:09:29;;;;;;;17.42;13.88;;;10.20;99.90;;;;;;4939062;28;20187;-78
2023/02/11 10:12:23;;;;;;;22.92;14.15;;;10.20;99.90;;;;;;4955075;28;20202;-78
2023/02/11 10:15:11;;;;;;;20.75;14.00;;;10.30;99.90;;;;;;4974654;28;20304;-79
2023/02/11 10:17:57;;;;;;;20.23;14.13;;;10.30;99.90;;;;;;4965860;28;20242;-79
2023/02/11 10:20:42;;;;;;;18.42;13.77;;;10.30;99.90;;;;;;4980706;28;20240;-78
2023/02/11 10:23:23;;;;;;;17.60;14.27;;;10.30;99.90;;;;;;4961027;28;20186;-79
2023/02/11 10:25:55;;;;;;;20.73;14.45;;;10.40;99.90;;;;;;4973954;28;20194;-79
2023/02/11 10:28:35;;;;;;;21.00;14.93;;;10.40;99.90;;;;;;4942712;28;20181;-80
2023/02/11 10:31:14;;;;;;;17.02;13.88;;;10.40;99.90;;;;;;4942626;28;20181;-80
2023/02/11 10:33:52;;;;;;;18.60;13.48;;;10.40;99.90;;;;;;4962100;28;20552;-79
2023/02/11 10:36:19;;;;;;;20.45;15.27;;;10.40;99.90;;;;;;4973100;28;20280;-79
2023/02/11 10:38:45;;;;;;;17.27;13.23;;;10.40;99.90;;;;;;4991636;28;20291;-79
2023/02/11 10:41:27;;;;;;;23.30;15.00;;;10.40;99.90;;;;;;4957386;28;20266;-79
2023/02/11 10:43:52;;;;;;;21.05;15.18;;;10.40;99.90;;;;;;4974203;28;20576;-79
2023/02/11 10:46:25;;;;;;;21.27;14.80;;;10.40;99.90;;;;;;4990802;28;20195;-79
2023/02/11 10:48:52;;;;;;;20.10;12.30;;;10.40;99.90;;;;;;4966074;28;20176;-80
2023/02/11 10:51:36;;;;;;;21.88;14.55;;;10.40;99.90;;;;;;4958462;28;20671;-79
2023/02/11 10:54:07;;;;;;;21.55;15.05;;;10.40;99.90;;;;;;4979669;28;20174;-79
2023/02/11 10:56:38;;;;;;;19.48;14.18;;;10.50;99.90;;;;;;4994563;28;20195;-80
2023/02/11 10:59:14;;;;;;;18.95;13.50;;;10.50;99.90;;;;;;4977882;28;20234;-79
2023/02/11 11:01:46;;;;;;;19.92;14.32;;;10.50;99.90;;;;;;4971541;28;20190;-80
2023/02/11 11:04:32;;;;;;;17.35;14.20;;;10.50;99.90;;;;;;4978298;28;20210;-78
2023/02/11 11:07:19;;;;;;;20.27;13.52;;;10.60;99.90;;;;;;4992699;28;20171;-80
2023/02/11 11:09:58;;;;;;;18.67;13.68;;;10.60;99.90;;;;;;4992407;28;20658;-79
2023/02/11 11:12:44;;;;;;;19.73;13.45;;;10.60;99.90;;;;;;4975752;28;20209;-79
2023/02/11 11:15:10;;;;;;;17.92;13.70;;;10.60;99.90;;;;;;4976208;28;20207;-79
2023/02/11 11:17:36;;;;;;;21.23;15.40;;;10.60;99.90;;;;;;4993730;28;20266;-79
2023/02/11 11:20:26;;;;;;;23.58;16.08;;;10.70;99.90;;;;;;4960652;28;20186;-79
2023/02/11 11:23:12;;;;;;;20.95;14.85;;;10.70;99.90;;;;;;4993454;28;20704;-79
2023/02/11 11:25:42;;;;;;;18.77;15.20;;;10.70;99.90;;;;;;4994102;28;20290;-79
2023/02/11 11:28:20;;;;;;;21.38;14.55;;;10.70;99.90;;;;;;4994738;28;20682;-79
2023/02/11 11:30:47;;;;;;;21.17;14.90;;;10.70;99.90;;;;;;4999496;28;20171;-79
2023/02/11 11:33:24;;;;;;;18.88;14.30;;;10.70;99.90;;;;;;4960366;28;20274;-79
2023/02/11 11:36:07;;;;;;;20.77;14.40;;;10.70;99.90;;;;;;4993988;28;20577;-79
2023/02/11 11:38:37;;;;;;;18.70;14.63;;;10.70;99.90;;;;;;4993994;28;20178;-78
2023/02/11 11:41:33;;;;;;;23.85;14.85;;;10.80;99.90;;;;;;4976850;28;20202;-78
2023/02/11 11:44:23;;;;;;;19.60;15.13;;;10.80;99.90;;;;;;4960685;28;20221;-78
2023/02/11 11:47:15;;;;;;;24.75;15.20;;;10.80;99.90;;;;;;4944298;28;20191;-78
2023/02/11 11:49:47;;;;;;;28.83;18.80;;;10.80;99.90;;;;;;4993855;28;20585;-78
2023/02/11 11:52:34;;;;;;;23.05;17.65;;;10.80;99.90;;;;;;4961129;28;20675;-77
2023/02/11 11:55:41;;;;;;;23.63;17.95;;;10.70;99.90;;;;;;4976633;28;20199;-78
2023/02/11 11:58:14;;;;;;;23.80;18.38;;;10.70;99.90;;;;;;4977388;28;20321;-76
2023/02/11 12:00:57;;;;;;;24.40;18.70;;;10.70;99.90;;;;;;4994544;28;20178;-77
2023/02/11 12:04:01;;;;;;;26.08;16.75;;;10.70;99.90;;;;;;4975882;28;20722;-76
2023/02/11 12:06:59;;;;;;;25.27;17.77;;;10.70;99.90;;;;;;4980395;28;20229;-77
2023/02/11 12:09:33;;;;;;;25.90;18.52;;;10.70;99.90;;;;;;4960276;28;20194;-78
2023/02/11 12:12:12;;;;;;;26.08;18.13;;;10.70;99.90;;;;;;4976642;28;20179;-77
2023/02/11 12:14:56;;;;;;;24.35;17.23;;;10.70;99.90;;;;;;4976267;28;20181;-77
2023/02/11 12:17:42;;;;;;;23.30;18.70;;;10.70;99.90;;;;;;4944613;28;20189;-77
2023/02/11 12:20:29;;;;;;;23.40;17.70;;;10.80;99.90;;;;;;4976356;28;20179;-77
2023/02/11 12:23:04;;;;;;;26.80;17.08;;;10.80;99.90;;;;;;4976379;28;20237;-78
2023/02/11 12:26:13;;;;;;;20.45;15.95;;;10.80;99.90;;;;;;4975116;28;20206;-77
2023/02/11 12:29:00;;;;;;;20.92;16.30;;;10.80;99.90;;;;;;4984964;28;20523;-77
2023/02/11 12:31:43;;;;;;;23.85;18.33;;;10.90;99.90;;;;;;4977864;28;20175;-77
2023/02/11 12:34:15;;;;;;;27.45;18.40;;;10.80;99.90;;;;;;4993757;28;20171;-77
2023/02/11 12:37:08;;;;;;;21.58;17.20;;;10.90;99.90;;;;;;4959301;28;20194;-77
2023/02/11 12:39:49;;;;;;;23.80;17.17;;;10.90;99.90;;;;;;4993047;28;20171;-79
2023/02/11 12:45:26;;;;;;;19.00;15.40;;;10.90;99.90;;;;;;4975079;28;20221;-78
2023/02/11 12:48:39;;;;;;;23.20;18.20;;;10.80;99.90;;;;;;4951724;28;20176;-78
2023/02/11 12:51:17;;;;;;;22.02;16.15;;;10.80;99.90;;;;;;4930113;29;20180;-78
2023/02/11 12:54:14;;;;;;;23.83;16.45;;;10.80;99.90;;;;;;4979757;28;20182;-79
2023/02/11 12:56:54;;;;;;;22.15;15.88;;;10.80;99.90;;;;;;4962282;28;20214;-78
2023/02/11 12:59:37;;;;;;;20.73;15.88;;;10.80;99.90;;;;;;4958321;28;20214;-78
2023/02/11 13:02:19;;;;;;;20.00;14.93;;;10.80;99.90;;;;;;4963754;28;20274;-79
2023/02/11 13:04:53;;;;;;;19.67;13.88;;;10.80;99.90;;;;;;4955301;28;20262;-78
2023/02/11 13:07:28;;;;;;;22.83;16.70;;;10.90;99.90;;;;;;4973334;28;20262;-79